createdAt,value
2023-03-20T00:01:57.872Z,101102.41
2023-03-20T00:04:25.953Z,101096.31
2023-03-20T00:06:54.698Z,101101.53
2023-03-20T00:09:22.360Z,101102.41
2023-03-20T00:11:51.611Z,101107.53
2023-03-20T00:14:22.449Z,101108.44
2023-03-20T00:16:51.286Z,101109.28
2023-03-20T00:19:20.717Z,101109.28
2023-03-20T00:21:48.578Z,101103.25
2023-03-20T00:24:18.149Z,101105.84
2023-03-20T00:26:47.342Z,101104.13
2023-03-20T00:29:21.586Z,101101.53
2023-03-20T00:31:49.438Z,101101.50
2023-03-20T00:34:19.301Z,101096.31
2023-03-20T00:36:47.406Z,101093.66
2023-03-20T00:39:14.915Z,101091.06
2023-03-20T00:41:49.962Z,101088.47
2023-03-20T00:44:24.825Z,101085.84
2023-03-20T00:46:55.455Z,101085.00
2023-03-20T00:49:26.274Z,101085.84
2023-03-20T00:51:53.692Z,101084.94
2023-03-20T00:54:21.332Z,101081.44
2023-03-20T00:56:56.501Z,101090.97
2023-03-20T00:59:27.792Z,101082.25
2023-03-20T01:01:56.522Z,101084.94
2023-03-20T01:04:24.011Z,101082.34
2023-03-20T01:06:52.538Z,101089.22
2023-03-20T01:09:19.986Z,101094.28
2023-03-20T01:11:47.660Z,101094.28
2023-03-20T01:14:17.940Z,101093.44
2023-03-20T01:16:45.540Z,101088.28
2023-03-20T01:19:14.575Z,101091.75
2023-03-20T01:21:42.285Z,101086.59
2023-03-20T01:24:10.097Z,101090.91
2023-03-20T01:26:40.210Z,101096.81
2023-03-20T01:29:19.992Z,101095.94
2023-03-20T01:31:47.606Z,101093.41
2023-03-20T01:34:16.337Z,101094.19
2023-03-20T01:36:47.418Z,101095.88
2023-03-20T01:39:15.001Z,101102.84
2023-03-20T01:41:42.590Z,101095.94
2023-03-20T01:44:22.196Z,101087.28
2023-03-20T01:46:50.902Z,101098.53
2023-03-20T01:49:55.631Z,101094.28
2023-03-20T01:52:23.082Z,101092.59
2023-03-20T01:54:50.854Z,101094.31
2023-03-20T01:57:21.505Z,101099.53
2023-03-20T01:59:53.152Z,101103.88
2023-03-20T02:02:23.607Z,101113.28
2023-03-20T02:04:56.330Z,101106.44
2023-03-20T02:07:24.634Z,101109.06
2023-03-20T02:09:52.612Z,101108.19
2023-03-20T02:12:21.340Z,101102.09
2023-03-20T02:14:52.089Z,101100.41
2023-03-20T02:17:20.073Z,101108.94
2023-03-20T02:19:59.298Z,101104.66
2023-03-20T02:23:12.922Z,101105.56
2023-03-20T02:26:16.223Z,101103.84
2023-03-20T02:29:38.030Z,101108.94
2023-03-20T02:32:50.708Z,101101.31
2023-03-20T02:35:33.808Z,101100.38
2023-03-20T02:38:16.641Z,101096.06
2023-03-20T02:40:48.935Z,101103.78
2023-03-20T02:43:25.260Z,101109.81
2023-03-20T02:45:56.977Z,101107.19
2023-03-20T02:48:40.130Z,101101.25
2023-03-20T02:51:17.015Z,101101.25
2023-03-20T02:53:54.193Z,101102.13
2023-03-20T02:56:30.959Z,101107.31
2023-03-20T02:59:06.600Z,101110.00
2023-03-20T03:01:39.076Z,101106.56
2023-03-20T03:04:11.157Z,101103.09
2023-03-20T03:06:41.702Z,101103.88
2023-03-20T03:09:17.227Z,101106.50
2023-03-20T03:11:50.471Z,101103.84
2023-03-20T03:14:23.006Z,101109.91
2023-03-20T03:16:53.187Z,101110.78
2023-03-20T03:19:24.997Z,101105.63
2023-03-20T03:21:52.925Z,101113.41
2023-03-20T03:24:39.835Z,101109.91
2023-03-20T03:27:14.125Z,101116.78
2023-03-20T03:29:42.866Z,101110.75
2023-03-20T03:32:24.436Z,101116.69
2023-03-20T03:34:51.984Z,101118.34
2023-03-20T03:37:28.026Z,101113.25
2023-03-20T03:40:06.355Z,101115.03
2023-03-20T03:42:38.547Z,101120.25
2023-03-20T03:45:12.822Z,101113.22
2023-03-20T03:47:46.172Z,101115.84
2023-03-20T03:50:17.900Z,101115.00
2023-03-20T03:52:47.511Z,101113.22
2023-03-20T03:55:22.918Z,101110.72
2023-03-20T03:57:54.833Z,101109.81
2023-03-20T04:00:26.079Z,101114.16
2023-03-20T04:02:55.976Z,101109.91
2023-03-20T04:05:25.790Z,101111.63
2023-03-20T04:07:56.277Z,101116.75
2023-03-20T04:10:25.521Z,101127.09
2023-03-20T04:12:52.944Z,101131.25
2023-03-20T04:15:21.686Z,101124.88
2023-03-20T04:17:49.184Z,101130.94
2023-03-20T04:20:17.396Z,101130.00
2023-03-20T04:22:44.813Z,101135.41
2023-03-20T04:25:18.308Z,101135.44
2023-03-20T04:27:47.141Z,101138.16
2023-03-20T04:30:15.269Z,101143.34
2023-03-20T04:32:42.732Z,101144.22
2023-03-20T04:35:10.708Z,101144.22
2023-03-20T04:37:38.175Z,101149.34
2023-03-20T04:40:06.585Z,101137.34
2023-03-20T04:42:34.001Z,101149.38
2023-03-20T04:45:02.844Z,101151.09
2023-03-20T04:47:30.230Z,101138.19
2023-03-20T04:49:57.782Z,101145.00
2023-03-20T04:52:25.600Z,101152.72
2023-03-20T04:54:53.053Z,101156.22
2023-03-20T04:57:20.616Z,101149.38
2023-03-20T04:59:48.085Z,101150.31
2023-03-20T05:02:17.940Z,101145.16
2023-03-20T05:04:45.449Z,101146.00
2023-03-20T05:07:12.895Z,101151.16
2023-03-20T05:09:40.345Z,101152.84
2023-03-20T05:12:08.489Z,101151.06
2023-03-20T05:14:36.019Z,101153.69
2023-03-20T05:17:03.521Z,101152.78
2023-03-20T05:19:32.319Z,101151.13
2023-03-20T05:21:59.735Z,101147.78
2023-03-20T05:24:29.012Z,101157.28
2023-03-20T05:26:56.450Z,101156.31
2023-03-20T05:29:24.507Z,101152.00
2023-03-20T05:31:51.918Z,101141.97
2023-03-20T05:34:19.320Z,101149.78
2023-03-20T05:36:48.126Z,101151.47
2023-03-20T05:39:15.724Z,101149.66
2023-03-20T05:41:45.749Z,101146.13
2023-03-20T05:44:13.366Z,101152.09
2023-03-20T05:46:41.021Z,101157.25
2023-03-20T05:49:08.516Z,101154.69
2023-03-20T05:51:36.078Z,101152.00
2023-03-20T05:54:05.178Z,101162.25
2023-03-20T05:56:32.638Z,101157.94
2023-03-20T05:59:00.118Z,101167.47
2023-03-20T06:01:27.523Z,101164.25
2023-03-20T06:03:54.979Z,101175.84
2023-03-20T06:06:22.383Z,101168.56
2023-03-20T06:08:49.811Z,101185.03
2023-03-20T06:11:18.676Z,101190.03
2023-03-20T06:13:46.216Z,101192.84
2023-03-20T06:16:13.710Z,101202.22
2023-03-20T06:18:41.214Z,101213.22
2023-03-20T06:21:09.365Z,101221.41
2023-03-20T06:23:36.849Z,101214.97
2023-03-20T06:26:04.605Z,101221.41
2023-03-20T06:28:33.358Z,101220.94
2023-03-20T06:31:01.058Z,101232.75
2023-03-20T06:33:28.892Z,101235.63
2023-03-20T06:35:56.365Z,101236.84
2023-03-20T06:38:23.790Z,101242.31
2023-03-20T06:40:51.215Z,101235.63
2023-03-20T06:43:19.254Z,101245.31
2023-03-20T06:45:48.425Z,101250.72
2023-03-20T06:48:21.799Z,101248.50
2023-03-20T06:50:49.584Z,101254.16
2023-03-20T06:53:17.291Z,101249.88
2023-03-20T06:55:48.240Z,101255.72
2023-03-20T06:58:15.843Z,101253.84
2023-03-20T07:00:43.540Z,101255.66
2023-03-20T07:03:12.574Z,101256.56
2023-03-20T07:05:40.288Z,101259.13
2023-03-20T07:08:08.317Z,101258.47
2023-03-20T07:10:36.083Z,101256.50
2023-03-20T07:13:03.556Z,101272.47
2023-03-20T07:15:31.094Z,101275.53
2023-03-20T07:17:58.490Z,101273.22
2023-03-20T07:20:27.574Z,101280.56
2023-03-20T07:22:55.425Z,101279.78
2023-03-20T07:25:35.372Z,101275.50
2023-03-20T07:28:07.012Z,101279.47
2023-03-20T07:30:34.477Z,101276.53
2023-03-20T07:33:01.890Z,101287.31
2023-03-20T07:35:30.942Z,101282.13
2023-03-20T07:37:58.436Z,101281.97
2023-03-20T07:40:25.914Z,101288.25
2023-03-20T07:42:53.363Z,101289.53
2023-03-20T07:45:20.795Z,101294.00
2023-03-20T07:47:48.715Z,101284.84
2023-03-20T07:50:17.122Z,101291.31
2023-03-20T07:52:48.497Z,101287.59
2023-03-20T07:55:18.477Z,101278.13
2023-03-20T07:57:46.171Z,101277.22
2023-03-20T08:00:15.196Z,101288.06
2023-03-20T08:02:42.794Z,101286.72
2023-03-20T08:05:10.870Z,101281.31
2023-03-20T08:07:38.400Z,101279.59
2023-03-20T08:10:08.149Z,101293.47
2023-03-20T08:12:35.717Z,101285.13
2023-03-20T08:15:03.211Z,101294.50
2023-03-20T08:17:30.739Z,101306.72
2023-03-20T08:19:58.264Z,101302.25
2023-03-20T08:22:25.936Z,101308.84
2023-03-20T08:24:53.546Z,101297.00
2023-03-20T08:27:22.364Z,101295.00
2023-03-20T08:29:49.760Z,101297.66
2023-03-20T08:32:17.160Z,101289.78
2023-03-20T08:34:44.683Z,101303.22
2023-03-20T08:37:12.397Z,101288.66
2023-03-20T08:39:40.170Z,101287.56
2023-03-20T08:42:08.390Z,101285.72
2023-03-20T08:44:37.164Z,101282.13
2023-03-20T08:47:05.504Z,101284.38
2023-03-20T08:49:32.942Z,101291.06
2023-03-20T08:52:00.619Z,101292.78
2023-03-20T08:54:28.202Z,101295.00
2023-03-20T08:56:55.724Z,101296.75
2023-03-20T08:59:23.182Z,101295.59
2023-03-20T09:01:51.980Z,101293.09
2023-03-20T09:04:19.862Z,101298.47
2023-03-20T09:06:47.676Z,101298.63
2023-03-20T09:09:16.230Z,101293.97
2023-03-20T09:11:43.760Z,101300.00
2023-03-20T09:14:11.549Z,101298.19
2023-03-20T09:16:39.328Z,101290.69
2023-03-20T09:19:08.075Z,101288.66
2023-03-20T09:21:35.502Z,101300.47
2023-03-20T09:24:03.364Z,101297.50
2023-03-20T09:26:31.001Z,101288.69
2023-03-20T09:28:58.456Z,101288.66
2023-03-20T09:31:25.964Z,101289.69
2023-03-20T09:33:53.535Z,101284.41
2023-03-20T09:36:22.270Z,101291.59
2023-03-20T09:38:49.748Z,101289.88
2023-03-20T09:41:21.621Z,101295.00
2023-03-20T09:44:06.208Z,101289.03
2023-03-20T09:46:49.684Z,101277.91
2023-03-20T09:49:28.114Z,101286.16
2023-03-20T09:51:59.675Z,101297.94
2023-03-20T09:54:32.391Z,101285.84
2023-03-20T09:57:04.346Z,101291.06
2023-03-20T09:59:35.493Z,101305.75
2023-03-20T10:02:09.076Z,101313.81
2023-03-20T10:04:37.859Z,101303.47
2023-03-20T10:07:06.975Z,101319.66
2023-03-20T10:09:34.694Z,101307.97
2023-03-20T10:12:18.184Z,101300.56
2023-03-20T10:14:58.049Z,101311.34
2023-03-20T10:17:39.528Z,101300.47
2023-03-20T10:20:14.536Z,101308.00
2023-03-20T10:22:48.219Z,101310.88
2023-03-20T10:25:24.569Z,101308.41
2023-03-20T10:27:57.057Z,101305.09
2023-03-20T10:30:34.740Z,101314.88
2023-03-20T10:33:16.833Z,101311.97
2023-03-20T10:35:48.782Z,101312.41
2023-03-20T10:38:33.261Z,101310.66
2023-03-20T10:41:00.774Z,101300.63
2023-03-20T10:43:32.916Z,101297.19
2023-03-20T10:46:05.346Z,101294.31
2023-03-20T10:48:38.112Z,101289.69
2023-03-20T10:51:07.539Z,101292.16
2023-03-20T10:53:42.867Z,101294.13
2023-03-20T10:56:17.031Z,101286.81
2023-03-20T10:58:48.760Z,101301.16
2023-03-20T11:01:16.559Z,101299.47
2023-03-20T11:03:44.142Z,101291.50
2023-03-20T11:06:20.115Z,101285.41
2023-03-20T11:08:51.995Z,101291.81
2023-03-20T11:11:24.617Z,101286.44
2023-03-20T11:13:52.038Z,101275.91
2023-03-20T11:16:23.365Z,101279.31
2023-03-20T11:18:53.884Z,101289.81
2023-03-20T11:21:24.204Z,101277.84
2023-03-20T11:23:53.910Z,101276.16
2023-03-20T11:26:33.488Z,101287.38
2023-03-20T11:29:01.619Z,101288.78
2023-03-20T11:31:35.321Z,101288.72
2023-03-20T11:34:12.260Z,101283.94
2023-03-20T11:36:41.312Z,101279.63
2023-03-20T11:39:14.906Z,101277.50
2023-03-20T11:41:47.451Z,101277.41
2023-03-20T11:44:28.271Z,101275.22
2023-03-20T11:46:57.737Z,101266.44
2023-03-20T11:49:27.696Z,101261.47
2023-03-20T11:51:58.572Z,101258.88
2023-03-20T11:54:28.733Z,101248.41
2023-03-20T11:56:58.012Z,101251.84
2023-03-20T11:59:30.670Z,101250.91
2023-03-20T12:01:59.205Z,101251.00
2023-03-20T12:04:30.606Z,101259.41
2023-03-20T12:07:02.350Z,101255.22
2023-03-20T12:09:43.413Z,101248.16
2023-03-20T12:12:20.287Z,101244.88
2023-03-20T12:14:58.040Z,101241.88
2023-03-20T12:17:43.750Z,101240.38
2023-03-20T12:20:27.014Z,101240.13
2023-03-20T12:23:00.962Z,101237.84
2023-03-20T12:25:36.369Z,101232.94
2023-03-20T12:28:06.633Z,101226.88
2023-03-20T12:30:49.832Z,101238.88
2023-03-20T12:33:22.696Z,101225.91
2023-03-20T12:35:54.638Z,101227.75
2023-03-20T12:38:28.329Z,101228.28
2023-03-20T12:41:05.717Z,101230.00
2023-03-20T12:43:45.355Z,101213.53
2023-03-20T12:46:24.519Z,101230.59
2023-03-20T12:49:06.837Z,101220.31
2023-03-20T12:51:47.409Z,101226.88
2023-03-20T12:54:32.024Z,101226.38
2023-03-20T12:57:09.480Z,101220.59
2023-03-20T12:59:51.882Z,101219.72
2023-03-20T13:02:31.292Z,101220.25
2023-03-20T13:05:10.277Z,101212.28
2023-03-20T13:07:51.618Z,101213.31
2023-03-20T13:10:22.239Z,101224.06
2023-03-20T13:13:05.585Z,101215.13
2023-03-20T13:15:45.830Z,101208.28
2023-03-20T13:18:20.854Z,101215.16
2023-03-20T13:20:52.093Z,101213.53
2023-03-20T13:23:24.206Z,101208.25
2023-03-20T13:26:04.428Z,101209.19
2023-03-20T13:28:40.201Z,101206.66
2023-03-20T13:31:21.789Z,101199.13
2023-03-20T13:33:57.540Z,101202.38
2023-03-20T13:36:48.298Z,101196.38
2023-03-20T13:39:21.358Z,101199.94
2023-03-20T13:41:50.642Z,101204.88
2023-03-20T13:44:22.602Z,101203.00
2023-03-20T13:46:53.553Z,101206.34
2023-03-20T13:49:26.497Z,101201.22
2023-03-20T13:52:00.239Z,101189.97
2023-03-20T13:54:48.318Z,101193.31
2023-03-20T13:57:29.110Z,101194.88
2023-03-20T14:00:17.969Z,101197.75
2023-03-20T14:03:03.163Z,101197.09
2023-03-20T14:05:37.596Z,101207.59
2023-03-20T14:08:37.795Z,101196.66
2023-03-20T14:11:15.272Z,101195.84
2023-03-20T14:13:48.843Z,101194.09
2023-03-20T14:16:20.786Z,101189.97
2023-03-20T14:18:50.039Z,101185.16
2023-03-20T14:21:21.681Z,101182.66
2023-03-20T14:23:51.447Z,101180.69
2023-03-20T14:26:22.857Z,101186.53
2023-03-20T14:28:56.079Z,101179.91
2023-03-20T14:31:30.496Z,101189.19
2023-03-20T14:34:01.500Z,101177.88
2023-03-20T14:36:41.482Z,101184.88
2023-03-20T14:39:20.848Z,101187.34
2023-03-20T14:42:01.577Z,101172.22
2023-03-20T14:44:39.913Z,101177.72
2023-03-20T14:47:23.411Z,101175.94
2023-03-20T14:49:54.447Z,101180.41
2023-03-20T14:52:46.292Z,101184.84
2023-03-20T14:55:31.463Z,101188.31
2023-03-20T14:58:03.272Z,101170.06
2023-03-20T15:00:35.845Z,101170.28
2023-03-20T15:03:09.960Z,101168.75
2023-03-20T15:05:39.780Z,101170.41
2023-03-20T15:08:11.335Z,101157.69
2023-03-20T15:10:46.440Z,101168.16
2023-03-20T15:13:15.867Z,101170.50
2023-03-20T15:15:54.936Z,101162.13
2023-03-20T15:18:25.981Z,101154.84
2023-03-20T15:20:54.935Z,101151.41
2023-03-20T15:23:22.393Z,101143.69
2023-03-20T15:25:51.689Z,101147.06
2023-03-20T15:28:21.715Z,101145.19
2023-03-20T15:30:51.153Z,101149.44
2023-03-20T15:33:27.281Z,101149.94
2023-03-20T15:35:56.718Z,101146.03
2023-03-20T15:38:29.320Z,101146.31
2023-03-20T15:40:57.159Z,101140.94
2023-03-20T15:43:27.087Z,101150.31
2023-03-20T15:46:14.170Z,101148.53
2023-03-20T15:48:48.318Z,101142.69
2023-03-20T15:51:18.150Z,101160.09
2023-03-20T15:53:48.334Z,101149.03
2023-03-20T15:56:19.215Z,101156.41
2023-03-20T15:58:49.819Z,101159.31
2023-03-20T16:01:19.985Z,101162.25
2023-03-20T16:03:48.442Z,101165.78
2023-03-20T16:06:21.051Z,101173.94
2023-03-20T16:08:58.169Z,101175.69
2023-03-20T16:11:25.732Z,101172.25
2023-03-20T16:13:55.976Z,101169.34
2023-03-20T16:16:25.245Z,101166.91
2023-03-20T16:18:52.769Z,101169.56
2023-03-20T16:21:25.431Z,101173.72
2023-03-20T16:23:55.774Z,101177.84
2023-03-20T16:26:25.956Z,101173.38
2023-03-20T16:28:56.027Z,101168.63
2023-03-20T16:31:28.311Z,101169.88
2023-03-20T16:33:59.874Z,101162.31
2023-03-20T16:36:30.433Z,101163.53
2023-03-20T16:38:59.781Z,101166.13
2023-03-20T16:41:31.711Z,101168.53
2023-03-20T16:43:59.542Z,101165.97
2023-03-20T16:46:29.006Z,101171.91
2023-03-20T16:48:58.934Z,101168.25
2023-03-20T16:51:28.060Z,101172.47
2023-03-20T16:53:59.093Z,101168.13
2023-03-20T16:56:29.988Z,101173.06
2023-03-20T16:58:57.983Z,101159.69
2023-03-20T17:01:29.667Z,101164.25
2023-03-20T17:03:59.070Z,101168.69
2023-03-20T17:06:35.673Z,101166.84
2023-03-20T17:09:18.707Z,101175.38
2023-03-20T17:11:50.203Z,101173.84
2023-03-20T17:14:18.365Z,101177.16
2023-03-20T17:16:45.789Z,101171.28
2023-03-20T17:19:16.775Z,101170.50
2023-03-20T17:21:44.396Z,101181.69
2023-03-20T17:24:14.430Z,101179.94
2023-03-20T17:26:44.992Z,101173.09
2023-03-20T17:29:13.046Z,101175.69
2023-03-20T17:31:40.709Z,101180.00
2023-03-20T17:34:08.214Z,101180.91
2023-03-20T17:36:36.300Z,101188.63
2023-03-20T17:39:04.147Z,101191.78
2023-03-20T17:41:32.896Z,101190.13
2023-03-20T17:44:00.589Z,101189.44
2023-03-20T17:46:30.507Z,101194.56
2023-03-20T17:49:00.386Z,101186.78
2023-03-20T17:51:27.820Z,101190.91
2023-03-20T17:53:57.760Z,101196.31
2023-03-20T17:56:29.909Z,101189.44
2023-03-20T17:58:58.963Z,101193.66
2023-03-20T18:01:27.211Z,101193.50
2023-03-20T18:03:55.054Z,101194.13
2023-03-20T18:06:27.017Z,101197.66
2023-03-20T18:08:55.027Z,101191.72
2023-03-20T18:11:22.549Z,101207.44
2023-03-20T18:13:50.159Z,101188.97
2023-03-20T18:16:21.572Z,101189.31
2023-03-20T18:18:49.718Z,101196.38
2023-03-20T18:21:17.632Z,101181.84
2023-03-20T18:23:45.896Z,101187.06
2023-03-20T18:26:22.290Z,101183.59
2023-03-20T18:28:51.264Z,101192.81
2023-03-20T18:31:20.958Z,101194.63
2023-03-20T18:33:49.266Z,101191.91
2023-03-20T18:36:18.580Z,101187.56
2023-03-20T18:38:46.245Z,101199.63
2023-03-20T18:41:14.326Z,101197.06
2023-03-20T18:43:42.115Z,101196.31
2023-03-20T18:46:14.092Z,101201.31
2023-03-20T18:48:43.486Z,101200.44
2023-03-20T18:51:10.976Z,101189.41
2023-03-20T18:53:40.631Z,101195.28
2023-03-20T18:56:12.740Z,101186.00
2023-03-20T18:58:40.400Z,101202.34
2023-03-20T19:01:08.057Z,101201.53
2023-03-20T19:03:39.270Z,101207.53
2023-03-20T19:06:13.703Z,101201.53
2023-03-20T19:08:41.145Z,101203.19
2023-03-20T19:11:14.851Z,101196.19
2023-03-20T19:13:44.979Z,101199.59
2023-03-20T19:16:21.904Z,101199.75
2023-03-20T19:18:51.153Z,101206.41
2023-03-20T19:21:25.795Z,101212.66
2023-03-20T19:23:53.978Z,101202.38
2023-03-20T19:26:25.881Z,101206.72
2023-03-20T19:28:54.718Z,101205.94
2023-03-20T19:31:22.944Z,101206.69
2023-03-20T19:33:50.893Z,101213.72
2023-03-20T19:36:27.175Z,101210.19
2023-03-20T19:38:55.782Z,101209.44
2023-03-20T19:41:23.392Z,101213.72
2023-03-20T19:43:55.379Z,101208.50
2023-03-20T19:46:41.562Z,101210.97
2023-03-20T19:49:18.384Z,101205.03
2023-03-20T19:51:48.790Z,101203.19
2023-03-20T19:54:16.317Z,101203.19
2023-03-20T19:56:43.807Z,101199.72
2023-03-20T19:59:11.686Z,101207.34
2023-03-20T20:01:39.129Z,101212.47
2023-03-20T20:04:06.736Z,101210.97
2023-03-20T20:06:34.138Z,101214.25
2023-03-20T20:09:03.529Z,101215.25
2023-03-20T20:11:30.943Z,101214.28
2023-03-20T20:14:08.527Z,101203.75
2023-03-20T20:16:37.744Z,101204.06
2023-03-20T20:19:05.843Z,101215.13
2023-03-20T20:24:22.680Z,101204.94
2023-03-20T20:26:55.293Z,101208.94
2023-03-20T20:29:28.082Z,101204.59
2023-03-20T20:31:55.566Z,101198.66
2023-03-20T20:40:00.213Z,101204.09
2023-03-20T20:42:27.759Z,101203.72
2023-03-20T20:44:55.169Z,101207.31
2023-03-20T20:47:22.661Z,101194.50
2023-03-20T20:49:50.074Z,101200.78
2023-03-20T20:52:17.715Z,101201.50
2023-03-20T20:54:45.205Z,101201.25
2023-03-20T20:57:14.372Z,101206.72
2023-03-20T20:59:42.058Z,101205.06
2023-03-20T21:02:11.949Z,101208.44
2023-03-20T21:04:40.485Z,101204.13
2023-03-20T21:07:10.946Z,101190.50
2023-03-20T21:09:38.982Z,101190.78
2023-03-20T21:12:08.052Z,101184.00
2023-03-20T21:14:37.131Z,101182.19
2023-03-20T21:17:05.911Z,101200.84
2023-03-20T21:19:35.470Z,101190.38
2023-03-20T21:22:02.975Z,101176.97
2023-03-20T21:24:33.956Z,101181.25
2023-03-20T21:27:02.275Z,101184.78
2023-03-20T21:29:29.699Z,101191.66
2023-03-20T21:31:58.515Z,101195.78
2023-03-20T21:34:26.142Z,101198.53
2023-03-20T21:36:53.672Z,101198.34
2023-03-20T21:39:21.550Z,101207.44
2023-03-20T21:41:49.066Z,101213.31
2023-03-20T21:44:24.630Z,101212.34
2023-03-20T21:58:56.453Z,101214.94
2023-03-20T22:07:32.018Z,101221.69
2023-03-20T22:10:10.935Z,101228.47
2023-03-20T22:18:31.007Z,101219.81
2023-03-20T22:24:21.185Z,101206.19
2023-03-20T22:29:48.334Z,101214.81
2023-03-20T22:46:05.532Z,101213.56
2023-03-20T22:48:36.136Z,101206.16
2023-03-20T22:51:03.942Z,101213.88
2023-03-20T22:53:33.131Z,101218.13
2023-03-20T22:56:01.273Z,101219.66
2023-03-20T22:58:28.740Z,101220.56
2023-03-20T23:00:56.577Z,101218.16
2023-03-20T23:03:42.447Z,101224.06
2023-03-20T23:06:15.376Z,101217.09
2023-03-20T23:08:50.664Z,101210.38
2023-03-20T23:11:20.444Z,101212.16
2023-03-20T23:13:47.918Z,101216.19
2023-03-20T23:16:15.595Z,101215.09
2023-03-20T23:18:43.726Z,101220.34
2023-03-20T23:21:11.620Z,101222.91
2023-03-20T23:23:39.431Z,101223.75
2023-03-20T23:26:10.656Z,101231.53
2023-03-20T23:28:39.166Z,101216.31
2023-03-20T23:31:10.658Z,101218.19
2023-03-20T23:33:38.977Z,101217.03
2023-03-20T23:36:16.530Z,101218.31
2023-03-20T23:38:52.404Z,101225.78
2023-03-20T23:41:36.621Z,101220.38
2023-03-20T23:44:08.712Z,101221.50
2023-03-20T23:46:36.192Z,101216.91
2023-03-20T23:49:03.817Z,101224.53
2023-03-20T23:51:31.330Z,101229.03
2023-03-20T23:53:58.713Z,101232.75
2023-03-20T23:56:27.461Z,101226.31
2023-03-20T23:59:01.163Z,101228.56
